sensor_id;sensor_type;location;lat;lon;timestamp;P1;durP1;ratioP1;P2;durP2;ratioP2
64832;SDS011;51290;45.060;38.948;2023-02-22T00:00:20;2.67;;;1.48;;
64832;SDS011;51290;45.060;38.948;2023-02-22T00:02:49;1.60;;;1.05;;
64832;SDS011;51290;45.060;38.948;2023-02-22T00:05:16;1.20;;;1.10;;
64832;SDS011;51290;45.060;38.948;2023-02-22T00:07:47;9.32;;;1.05;;
64832;SDS011;51290;45.060;38.948;2023-02-22T00:10:14;1.45;;;0.90;;
64832;SDS011;51290;45.060;38.948;2023-02-22T00:12:47;2.33;;;0.75;;
64832;SDS011;51290;45.060;38.948;2023-02-22T00:15:18;1.20;;;1.10;;
64832;SDS011;51290;45.060;38.948;2023-02-22T00:17:46;0.45;;;0.38;;
64832;SDS011;51290;45.060;38.948;2023-02-22T00:20:12;1.65;;;0.90;;
64832;SDS011;51290;45.060;38.948;2023-02-22T00:22:45;0.95;;;0.70;;
64832;SDS011;51290;45.060;38.948;2023-02-22T00:25:13;1.65;;;1.42;;
64832;SDS011;51290;45.060;38.948;2023-02-22T00:27:42;1.17;;;1.00;;
64832;SDS011;51290;45.060;38.948;2023-02-22T00:30:13;1.10;;;0.98;;
64832;SDS011;51290;45.060;38.948;2023-02-22T00:32:44;1.98;;;0.85;;
64832;SDS011;51290;45.060;38.948;2023-02-22T00:35:12;1.42;;;0.68;;
64832;SDS011;51290;45.060;38.948;2023-02-22T00:37:40;4.38;;;1.88;;
64832;SDS011;51290;45.060;38.948;2023-02-22T00:40:07;0.98;;;0.65;;
64832;SDS011;51290;45.060;38.948;2023-02-22T00:42:34;3.90;;;1.85;;
64832;SDS011;51290;45.060;38.948;2023-02-22T00:45:00;0.80;;;0.70;;
64832;SDS011;51290;45.060;38.948;2023-02-22T00:47:27;1.30;;;1.20;;
64832;SDS011;51290;45.060;38.948;2023-02-22T00:49:54;1.48;;;0.65;;
64832;SDS011;51290;45.060;38.948;2023-02-22T00:52:21;1.45;;;0.65;;
64832;SDS011;51290;45.060;38.948;2023-02-22T00:54:46;0.90;;;0.90;;
64832;SDS011;51290;45.060;38.948;2023-02-22T00:57:12;0.80;;;0.50;;
64832;SDS011;51290;45.060;38.948;2023-02-22T00:59:38;3.03;;;0.95;;
64832;SDS011;51290;45.060;38.948;2023-02-22T01:02:04;0.73;;;0.73;;
64832;SDS011;51290;45.060;38.948;2023-02-22T01:04:30;0.77;;;0.73;;
64832;SDS011;51290;45.060;38.948;2023-02-22T01:06:56;0.75;;;0.75;;
64832;SDS011;51290;45.060;38.948;2023-02-22T01:09:25;0.38;;;0.38;;
64832;SDS011;51290;45.060;38.948;2023-02-22T01:11:52;0.93;;;0.93;;
64832;SDS011;51290;45.060;38.948;2023-02-22T01:14:23;18.55;;;0.73;;
64832;SDS011;51290;45.060;38.948;2023-02-22T01:16:51;1.55;;;1.10;;
64832;SDS011;51290;45.060;38.948;2023-02-22T01:19:19;2.58;;;1.23;;
64832;SDS011;51290;45.060;38.948;2023-02-22T01:21:46;0.85;;;0.85;;
64832;SDS011;51290;45.060;38.948;2023-02-22T01:24:13;5.18;;;1.80;;
64832;SDS011;51290;45.060;38.948;2023-02-22T01:26:41;2.28;;;0.90;;
64832;SDS011;51290;45.060;38.948;2023-02-22T01:29:11;1.17;;;1.08;;
64832;SDS011;51290;45.060;38.948;2023-02-22T01:31:40;1.15;;;0.90;;
64832;SDS011;51290;45.060;38.948;2023-02-22T01:34:10;0.70;;;0.70;;
64832;SDS011;51290;45.060;38.948;2023-02-22T01:36:37;1.95;;;1.02;;
64832;SDS011;51290;45.060;38.948;2023-02-22T01:39:07;1.52;;;0.77;;
64832;SDS011;51290;45.060;38.948;2023-02-22T01:41:35;2.75;;;1.60;;
64832;SDS011;51290;45.060;38.948;2023-02-22T01:46:42;1.08;;;0.98;;
64832;SDS011;51290;45.060;38.948;2023-02-22T01:49:08;0.80;;;0.80;;
64832;SDS011;51290;45.060;38.948;2023-02-22T01:51:36;2.03;;;1.27;;
64832;SDS011;51290;45.060;38.948;2023-02-22T01:56:41;0.45;;;0.45;;
64832;SDS011;51290;45.060;38.948;2023-02-22T01:59:14;2.78;;;1.27;;
64832;SDS011;51290;45.060;38.948;2023-02-22T02:01:42;0.70;;;0.70;;
64832;SDS011;51290;45.060;38.948;2023-02-22T02:04:10;0.90;;;0.90;;
64832;SDS011;51290;45.060;38.948;2023-02-22T02:09:23;1.17;;;1.02;;
64832;SDS011;51290;45.060;38.948;2023-02-22T02:11:57;0.82;;;0.65;;
64832;SDS011;51290;45.060;38.948;2023-02-22T02:14:29;0.43;;;0.43;;
64832;SDS011;51290;45.060;38.948;2023-02-22T02:17:05;0.93;;;0.75;;
64832;SDS011;51290;45.060;38.948;2023-02-22T02:19:57;1.58;;;1.15;;
64832;SDS011;51290;45.060;38.948;2023-02-22T02:25:40;0.60;;;0.60;;
64832;SDS011;51290;45.060;38.948;2023-02-22T02:28:29;2.75;;;0.98;;
64832;SDS011;51290;45.060;38.948;2023-02-22T02:34:18;1.88;;;1.23;;
64832;SDS011;51290;45.060;38.948;2023-02-22T02:37:04;0.40;;;0.38;;
64832;SDS011;51290;45.060;38.948;2023-02-22T02:40:09;2.67;;;1.42;;
64832;SDS011;51290;45.060;38.948;2023-02-22T02:42:52;1.88;;;0.93;;
64832;SDS011;51290;45.060;38.948;2023-02-22T02:45:26;6.13;;;1.10;;
64832;SDS011;51290;45.060;38.948;2023-02-22T02:47:57;0.65;;;0.65;;
64832;SDS011;51290;45.060;38.948;2023-02-22T02:50:27;1.55;;;1.40;;
64832;SDS011;51290;45.060;38.948;2023-02-22T02:53:00;1.48;;;1.38;;
64832;SDS011;51290;45.060;38.948;2023-02-22T02:55:29;6.85;;;1.15;;
64832;SDS011;51290;45.060;38.948;2023-02-22T02:57:57;1.25;;;0.70;;
64832;SDS011;51290;45.060;38.948;2023-02-22T03:00:27;0.60;;;0.60;;
64832;SDS011;51290;45.060;38.948;2023-02-22T03:08:33;0.70;;;0.70;;
64832;SDS011;51290;45.060;38.948;2023-02-22T03:11:13;0.50;;;0.47;;
64832;SDS011;51290;45.060;38.948;2023-02-22T03:24:44;0.80;;;0.80;;
64832;SDS011;51290;45.060;38.948;2023-02-22T03:29:52;1.00;;;0.88;;
64832;SDS011;51290;45.060;38.948;2023-02-22T03:32:24;2.05;;;1.13;;
64832;SDS011;51290;45.060;38.948;2023-02-22T03:35:00;5.15;;;2.53;;
64832;SDS011;51290;45.060;38.948;2023-02-22T03:37:35;2.15;;;1.20;;
64832;SDS011;51290;45.060;38.948;2023-02-22T03:40:06;1.35;;;0.65;;
64832;SDS011;51290;45.060;38.948;2023-02-22T03:42:45;0.87;;;0.87;;
64832;SDS011;51290;45.060;38.948;2023-02-22T03:45:16;3.47;;;1.55;;
64832;SDS011;51290;45.060;38.948;2023-02-22T03:47:50;0.95;;;0.50;;
64832;SDS011;51290;45.060;38.948;2023-02-22T03:50:29;2.72;;;0.93;;
64832;SDS011;51290;45.060;38.948;2023-02-22T03:53:02;0.77;;;0.77;;
64832;SDS011;51290;45.060;38.948;2023-02-22T03:55:31;4.07;;;2.45;;
64832;SDS011;51290;45.060;38.948;2023-02-22T03:57:58;3.03;;;1.60;;
64832;SDS011;51290;45.060;38.948;2023-02-22T04:00:31;1.30;;;0.77;;
64832;SDS011;51290;45.060;38.948;2023-02-22T04:02:59;1.25;;;1.17;;
64832;SDS011;51290;45.060;38.948;2023-02-22T04:05:26;2.10;;;1.92;;
64832;SDS011;51290;45.060;38.948;2023-02-22T04:07:52;0.85;;;0.85;;
64832;SDS011;51290;45.060;38.948;2023-02-22T04:10:19;1.10;;;1.02;;
64832;SDS011;51290;45.060;38.948;2023-02-22T04:12:47;6.28;;;2.30;;
64832;SDS011;51290;45.060;38.948;2023-02-22T04:15:16;1.55;;;1.45;;
64832;SDS011;51290;45.060;38.948;2023-02-22T04:17:46;1.38;;;1.05;;
64832;SDS011;51290;45.060;38.948;2023-02-22T04:20:13;0.52;;;0.52;;
64832;SDS011;51290;45.060;38.948;2023-02-22T04:23:04;1.27;;;1.17;;
64832;SDS011;51290;45.060;38.948;2023-02-22T04:25:30;3.08;;;1.10;;
64832;SDS011;51290;45.060;38.948;2023-02-22T04:28:00;1.80;;;1.40;;
64832;SDS011;51290;45.060;38.948;2023-02-22T04:30:36;1.40;;;0.98;;
64832;SDS011;51290;45.060;38.948;2023-02-22T04:33:16;2.47;;;1.60;;
64832;SDS011;51290;45.060;38.948;2023-02-22T04:35:42;0.65;;;0.65;;
64832;SDS011;51290;45.060;38.948;2023-02-22T04:38:08;1.10;;;1.05;;
64832;SDS011;51290;45.060;38.948;2023-02-22T04:40:37;1.42;;;1.00;;
64832;SDS011;51290;45.060;38.948;2023-02-22T04:43:03;1.35;;;1.23;;
64832;SDS011;51290;45.060;38.948;2023-02-22T04:45:29;1.95;;;1.77;;
64832;SDS011;51290;45.060;38.948;2023-02-22T04:47:55;1.33;;;0.98;;
64832;SDS011;51290;45.060;38.948;2023-02-22T04:50:22;1.40;;;0.75;;
64832;SDS011;51290;45.060;38.948;2023-02-22T04:52:48;1.50;;;1.35;;
64832;SDS011;51290;45.060;38.948;2023-02-22T04:55:14;3.78;;;1.88;;
64832;SDS011;51290;45.060;38.948;2023-02-22T04:57:41;0.50;;;0.50;;
64832;SDS011;51290;45.060;38.948;2023-02-22T05:00:10;2.00;;;0.80;;
64832;SDS011;51290;45.060;38.948;2023-02-22T05:02:40;0.95;;;0.88;;
64832;SDS011;51290;45.060;38.948;2023-02-22T05:05:06;1.80;;;1.60;;
64832;SDS011;51290;45.060;38.948;2023-02-22T05:07:32;1.25;;;1.02;;
64832;SDS011;51290;45.060;38.948;2023-02-22T05:09:58;2.10;;;1.30;;
64832;SDS011;51290;45.060;38.948;2023-02-22T05:12:27;1.45;;;1.33;;
64832;SDS011;51290;45.060;38.948;2023-02-22T05:14:53;2.13;;;1.63;;
64832;SDS011;51290;45.060;38.948;2023-02-22T05:17:19;1.35;;;0.80;;
64832;SDS011;51290;45.060;38.948;2023-02-22T05:19:48;2.65;;;1.45;;
64832;SDS011;51290;45.060;38.948;2023-02-22T05:22:14;2.38;;;1.23;;
64832;SDS011;51290;45.060;38.948;2023-02-22T05:24:40;0.90;;;0.90;;
64832;SDS011;51290;45.060;38.948;2023-02-22T05:27:06;1.65;;;1.13;;
64832;SDS011;51290;45.060;38.948;2023-02-22T05:29:31;3.03;;;1.35;;
64832;SDS011;51290;45.060;38.948;2023-02-22T05:31:57;6.25;;;1.65;;
64832;SDS011;51290;45.060;38.948;2023-02-22T05:34:24;3.50;;;1.33;;
64832;SDS011;51290;45.060;38.948;2023-02-22T05:36:50;3.92;;;1.33;;
64832;SDS011;51290;45.060;38.948;2023-02-22T05:39:16;2.85;;;1.80;;
64832;SDS011;51290;45.060;38.948;2023-02-22T05:41:42;1.55;;;1.45;;
64832;SDS011;51290;45.060;38.948;2023-02-22T05:44:08;3.42;;;2.25;;
64832;SDS011;51290;45.060;38.948;2023-02-22T05:46:42;2.83;;;1.98;;
64832;SDS011;51290;45.060;38.948;2023-02-22T05:49:08;3.53;;;1.20;;
64832;SDS011;51290;45.060;38.948;2023-02-22T05:51:34;2.13;;;1.63;;
64832;SDS011;51290;45.060;38.948;2023-02-22T05:54:00;1.40;;;1.10;;
64832;SDS011;51290;45.060;38.948;2023-02-22T05:56:27;4.10;;;2.72;;
64832;SDS011;51290;45.060;38.948;2023-02-22T05:58:55;3.33;;;2.15;;
64832;SDS011;51290;45.060;38.948;2023-02-22T06:01:21;4.95;;;2.47;;
64832;SDS011;51290;45.060;38.948;2023-02-22T06:03:48;2.20;;;1.13;;
64832;SDS011;51290;45.060;38.948;2023-02-22T06:06:15;3.80;;;1.60;;
64832;SDS011;51290;45.060;38.948;2023-02-22T06:08:45;2.33;;;1.35;;
64832;SDS011;51290;45.060;38.948;2023-02-22T06:11:11;3.05;;;1.85;;
64832;SDS011;51290;45.060;38.948;2023-02-22T06:13:37;1.00;;;0.98;;
64832;SDS011;51290;45.060;38.948;2023-02-22T06:16:04;3.45;;;1.33;;
64832;SDS011;51290;45.060;38.948;2023-02-22T06:18:31;1.60;;;1.50;;
64832;SDS011;51290;45.060;38.948;2023-02-22T06:20:57;3.05;;;1.17;;
64832;SDS011;51290;45.060;38.948;2023-02-22T06:23:24;3.83;;;1.80;;
64832;SDS011;51290;45.060;38.948;2023-02-22T06:25:51;1.92;;;1.38;;
64832;SDS011;51290;45.060;38.948;2023-02-22T06:28:17;1.42;;;1.25;;
64832;SDS011;51290;45.060;38.948;2023-02-22T06:30:43;1.55;;;1.30;;
64832;SDS011;51290;45.060;38.948;2023-02-22T06:33:11;1.20;;;0.95;;
64832;SDS011;51290;45.060;38.948;2023-02-22T06:35:37;1.40;;;1.27;;
64832;SDS011;51290;45.060;38.948;2023-02-22T06:38:03;9.10;;;2.00;;
64832;SDS011;51290;45.060;38.948;2023-02-22T06:40:29;1.48;;;1.05;;
64832;SDS011;51290;45.060;38.948;2023-02-22T06:42:55;1.17;;;0.90;;
64832;SDS011;51290;45.060;38.948;2023-02-22T06:45:22;1.40;;;1.13;;
64832;SDS011;51290;45.060;38.948;2023-02-22T06:47:48;0.88;;;0.88;;
64832;SDS011;51290;45.060;38.948;2023-02-22T06:50:19;1.02;;;1.02;;
64832;SDS011;51290;45.060;38.948;2023-02-22T06:52:47;2.72;;;1.60;;
64832;SDS011;51290;45.060;38.948;2023-02-22T06:55:17;2.17;;;1.70;;
64832;SDS011;51290;45.060;38.948;2023-02-22T06:57:50;4.32;;;2.60;;
64832;SDS011;51290;45.060;38.948;2023-02-22T07:00:17;1.08;;;0.90;;
64832;SDS011;51290;45.060;38.948;2023-02-22T07:02:45;1.92;;;1.77;;
64832;SDS011;51290;45.060;38.948;2023-02-22T07:05:15;1.90;;;1.45;;
64832;SDS011;51290;45.060;38.948;2023-02-22T07:07:43;1.52;;;1.05;;
64832;SDS011;51290;45.060;38.948;2023-02-22T07:10:25;1.25;;;1.15;;
64832;SDS011;51290;45.060;38.948;2023-02-22T07:12:53;2.60;;;0.85;;
64832;SDS011;51290;45.060;38.948;2023-02-22T07:15:21;4.50;;;1.17;;
64832;SDS011;51290;45.060;38.948;2023-02-22T07:17:48;4.03;;;1.55;;
64832;SDS011;51290;45.060;38.948;2023-02-22T07:20:15;1.85;;;1.33;;
64832;SDS011;51290;45.060;38.948;2023-02-22T07:22:42;7.45;;;2.15;;
64832;SDS011;51290;45.060;38.948;2023-02-22T07:25:26;2.47;;;2.28;;
64832;SDS011;51290;45.060;38.948;2023-02-22T07:27:52;4.13;;;1.80;;
64832;SDS011;51290;45.060;38.948;2023-02-22T07:32:49;2.50;;;1.65;;
64832;SDS011;51290;45.060;38.948;2023-02-22T07:37:47;3.78;;;1.77;;
64832;SDS011;51290;45.060;38.948;2023-02-22T07:40:13;3.22;;;1.38;;
64832;SDS011;51290;45.060;38.948;2023-02-22T07:45:46;5.13;;;2.72;;
64832;SDS011;51290;45.060;38.948;2023-02-22T07:48:13;2.90;;;2.00;;
64832;SDS011;51290;45.060;38.948;2023-02-22T07:50:40;4.03;;;2.30;;
64832;SDS011;51290;45.060;38.948;2023-02-22T07:53:09;4.45;;;2.60;;
64832;SDS011;51290;45.060;38.948;2023-02-22T07:55:38;2.25;;;1.90;;
64832;SDS011;51290;45.060;38.948;2023-02-22T07:58:05;2.08;;;1.85;;
64832;SDS011;51290;45.060;38.948;2023-02-22T08:00:33;2.83;;;1.75;;
64832;SDS011;51290;45.060;38.948;2023-02-22T08:03:09;7.68;;;2.40;;
64832;SDS011;51290;45.060;38.948;2023-02-22T08:05:38;4.97;;;2.17;;
64832;SDS011;51290;45.060;38.948;2023-02-22T08:08:11;1.80;;;1.63;;
64832;SDS011;51290;45.060;38.948;2023-02-22T08:10:40;2.42;;;1.75;;
64832;SDS011;51290;45.060;38.948;2023-02-22T08:13:06;1.52;;;1.42;;
64832;SDS011;51290;45.060;38.948;2023-02-22T08:15:33;3.97;;;2.40;;
64832;SDS011;51290;45.060;38.948;2023-02-22T08:18:04;2.50;;;1.67;;
64832;SDS011;51290;45.060;38.948;2023-02-22T08:20:35;3.90;;;1.70;;
64832;SDS011;51290;45.060;38.948;2023-02-22T08:23:03;5.38;;;1.75;;
64832;SDS011;51290;45.060;38.948;2023-02-22T08:25:30;1.83;;;1.55;;
64832;SDS011;51290;45.060;38.948;2023-02-22T08:28:00;2.65;;;1.70;;
64832;SDS011;51290;45.060;38.948;2023-02-22T08:30:29;0.75;;;0.73;;
64832;SDS011;51290;45.060;38.948;2023-02-22T08:32:57;8.23;;;2.65;;
64832;SDS011;51290;45.060;38.948;2023-02-22T08:35:23;1.55;;;1.27;;
64832;SDS011;51290;45.060;38.948;2023-02-22T08:37:52;2.25;;;1.75;;
64832;SDS011;51290;45.060;38.948;2023-02-22T08:40:22;1.63;;;1.52;;
64832;SDS011;51290;45.060;38.948;2023-02-22T08:42:49;3.60;;;1.55;;
64832;SDS011;51290;45.060;38.948;2023-02-22T08:45:15;2.28;;;1.45;;
64832;SDS011;51290;45.060;38.948;2023-02-22T08:47:42;7.50;;;2.03;;
64832;SDS011;51290;45.060;38.948;2023-02-22T08:50:08;3.00;;;1.75;;
64832;SDS011;51290;45.060;38.948;2023-02-22T08:52:39;1.40;;;1.30;;
64832;SDS011;51290;45.060;38.948;2023-02-22T08:55:05;1.75;;;1.65;;
64832;SDS011;51290;45.060;38.948;2023-02-22T08:57:34;5.85;;;2.22;;
64832;SDS011;51290;45.060;38.948;2023-02-22T09:00:00;1.35;;;1.25;;
64832;SDS011;51290;45.060;38.948;2023-02-22T09:02:27;5.38;;;1.88;;
64832;SDS011;51290;45.060;38.948;2023-02-22T09:04:53;3.70;;;1.80;;
64832;SDS011;51290;45.060;38.948;2023-02-22T09:07:19;6.25;;;2.40;;
64832;SDS011;51290;45.060;38.948;2023-02-22T09:09:45;1.80;;;1.58;;
64832;SDS011;51290;45.060;38.948;2023-02-22T09:12:11;1.23;;;1.17;;
64832;SDS011;51290;45.060;38.948;2023-02-22T09:14:37;3.85;;;2.30;;
64832;SDS011;51290;45.060;38.948;2023-02-22T09:17:03;2.25;;;1.60;;
64832;SDS011;51290;45.060;38.948;2023-02-22T09:19:29;1.77;;;1.50;;
64832;SDS011;51290;45.060;38.948;2023-02-22T09:21:57;2.08;;;1.77;;
64832;SDS011;51290;45.060;38.948;2023-02-22T09:24:26;4.13;;;1.58;;
64832;SDS011;51290;45.060;38.948;2023-02-22T09:26:52;2.38;;;1.83;;
64832;SDS011;51290;45.060;38.948;2023-02-22T09:29:19;1.30;;;1.17;;
64832;SDS011;51290;45.060;38.948;2023-02-22T09:31:50;4.45;;;1.95;;
64832;SDS011;51290;45.060;38.948;2023-02-22T09:34:18;1.38;;;1.27;;
64832;SDS011;51290;45.060;38.948;2023-02-22T09:36:47;1.77;;;1.55;;
64832;SDS011;51290;45.060;38.948;2023-02-22T09:39:15;2.15;;;1.95;;
64832;SDS011;51290;45.060;38.948;2023-02-22T09:42:02;1.75;;;1.60;;
64832;SDS011;51290;45.060;38.948;2023-02-22T09:47:43;2.10;;;1.67;;
64832;SDS011;51290;45.060;38.948;2023-02-22T09:50:15;1.50;;;1.38;;
64832;SDS011;51290;45.060;38.948;2023-02-22T09:58:01;1.45;;;1.13;;
64832;SDS011;51290;45.060;38.948;2023-02-22T10:00:32;1.45;;;1.35;;
64832;SDS011;51290;45.060;38.948;2023-02-22T10:05:39;2.67;;;1.88;;
64832;SDS011;51290;45.060;38.948;2023-02-22T10:08:12;5.05;;;1.60;;
64832;SDS011;51290;45.060;38.948;2023-02-22T10:10:41;2.17;;;1.63;;
64832;SDS011;51290;45.060;38.948;2023-02-22T10:20:53;2.92;;;1.70;;
64832;SDS011;51290;45.060;38.948;2023-02-22T10:23:40;1.92;;;1.50;;
64832;SDS011;51290;45.060;38.948;2023-02-22T10:26:30;3.47;;;1.30;;
64832;SDS011;51290;45.060;38.948;2023-02-22T10:31:59;1.38;;;1.27;;
64832;SDS011;51290;45.060;38.948;2023-02-22T10:34:35;1.13;;;1.13;;
64832;SDS011;51290;45.060;38.948;2023-02-22T10:40:14;3.88;;;1.52;;
64832;SDS011;51290;45.060;38.948;2023-02-22T10:42:48;2.65;;;1.80;;
64832;SDS011;51290;45.060;38.948;2023-02-22T10:45:32;4.90;;;2.13;;
64832;SDS011;51290;45.060;38.948;2023-02-22T10:48:05;4.63;;;1.75;;
64832;SDS011;51290;45.060;38.948;2023-02-22T10:50:37;2.40;;;1.40;;
64832;SDS011;51290;45.060;38.948;2023-02-22T10:53:05;3.20;;;1.52;;
64832;SDS011;51290;45.060;38.948;2023-02-22T10:58:39;2.08;;;1.65;;
64832;SDS011;51290;45.060;38.948;2023-02-22T11:01:22;1.40;;;1.30;;
64832;SDS011;51290;45.060;38.948;2023-02-22T11:04:06;1.67;;;1.02;;
64832;SDS011;51290;45.060;38.948;2023-02-22T11:06:43;3.28;;;1.70;;
64832;SDS011;51290;45.060;38.948;2023-02-22T11:09:14;1.02;;;0.93;;
64832;SDS011;51290;45.060;38.948;2023-02-22T11:11:47;3.03;;;2.17;;
64832;SDS011;51290;45.060;38.948;2023-02-22T11:14:24;2.20;;;1.52;;
64832;SDS011;51290;45.060;38.948;2023-02-22T11:16:53;1.50;;;1.40;;
64832;SDS011;51290;45.060;38.948;2023-02-22T11:19:25;1.10;;;1.00;;
64832;SDS011;51290;45.060;38.948;2023-02-22T11:22:12;3.95;;;1.90;;
64832;SDS011;51290;45.060;38.948;2023-02-22T11:24:49;5.50;;;2.53;;
64832;SDS011;51290;45.060;38.948;2023-02-22T11:27:24;1.60;;;1.15;;
64832;SDS011;51290;45.060;38.948;2023-02-22T11:29:58;2.47;;;1.90;;
64832;SDS011;51290;45.060;38.948;2023-02-22T11:32:45;2.17;;;1.90;;
64832;SDS011;51290;45.060;38.948;2023-02-22T11:38:10;1.95;;;1.45;;
64832;SDS011;51290;45.060;38.948;2023-02-22T11:40:41;2.10;;;1.63;;
64832;SDS011;51290;45.060;38.948;2023-02-22T11:43:12;1.63;;;1.52;;
64832;SDS011;51290;45.060;38.948;2023-02-22T11:46:04;2.08;;;1.15;;
64832;SDS011;51290;45.060;38.948;2023-02-22T11:48:34;1.95;;;1.83;;
64832;SDS011;51290;45.060;38.948;2023-02-22T11:51:11;2.22;;;1.77;;
64832;SDS011;51290;45.060;38.948;2023-02-22T11:56:23;5.45;;;2.05;;
64832;SDS011;51290;45.060;38.948;2023-02-22T12:01:36;2.45;;;1.75;;
64832;SDS011;51290;45.060;38.948;2023-02-22T12:14:52;2.55;;;1.60;;
64832;SDS011;51290;45.060;38.948;2023-02-22T12:20:17;1.77;;;1.42;;
64832;SDS011;51290;45.060;38.948;2023-02-22T12:31:06;1.48;;;1.38;;
64832;SDS011;51290;45.060;38.948;2023-02-22T12:34:03;5.70;;;1.73;;
64832;SDS011;51290;45.060;38.948;2023-02-22T12:36:37;1.35;;;1.17;;
64832;SDS011;51290;45.060;38.948;2023-02-22T12:39:26;1.70;;;1.58;;
64832;SDS011;51290;45.060;38.948;2023-02-22T12:42:11;2.90;;;2.10;;
64832;SDS011;51290;45.060;38.948;2023-02-22T12:44:41;2.28;;;1.52;;
64832;SDS011;51290;45.060;38.948;2023-02-22T12:47:14;1.48;;;1.38;;
64832;SDS011;51290;45.060;38.948;2023-02-22T12:49:49;1.83;;;1.42;;
64832;SDS011;51290;45.060;38.948;2023-02-22T12:55:05;1.52;;;1.40;;
64832;SDS011;51290;45.060;38.948;2023-02-22T12:58:41;1.55;;;1.35;;
64832;SDS011;51290;45.060;38.948;2023-02-22T13:00:57;2.15;;;1.75;;
64832;SDS011;51290;45.060;38.948;2023-02-22T13:03:37;1.27;;;1.17;;
64832;SDS011;51290;45.060;38.948;2023-02-22T13:06:23;1.52;;;1.42;;
64832;SDS011;51290;45.060;38.948;2023-02-22T13:20:20;1.20;;;1.15;;
64832;SDS011;51290;45.060;38.948;2023-02-22T13:26:04;2.25;;;1.55;;
64832;SDS011;51290;45.060;38.948;2023-02-22T13:28:21;1.63;;;1.52;;
64832;SDS011;51290;45.060;38.948;2023-02-22T13:31:19;1.63;;;1.52;;
64832;SDS011;51290;45.060;38.948;2023-02-22T13:34:19;2.33;;;1.85;;
64832;SDS011;51290;45.060;38.948;2023-02-22T13:46:15;1.65;;;1.50;;
64832;SDS011;51290;45.060;38.948;2023-02-22T13:51:48;4.15;;;2.53;;
64832;SDS011;51290;45.060;38.948;2023-02-22T13:57:38;1.13;;;1.02;;
64832;SDS011;51290;45.060;38.948;2023-02-22T14:08:37;1.98;;;1.52;;
64832;SDS011;51290;45.060;38.948;2023-02-22T14:13:23;4.75;;;2.30;;
64832;SDS011;51290;45.060;38.948;2023-02-22T14:18:34;4.72;;;1.63;;
64832;SDS011;51290;45.060;38.948;2023-02-22T14:26:08;2.72;;;2.13;;
64832;SDS011;51290;45.060;38.948;2023-02-22T14:31:15;4.45;;;1.98;;
64832;SDS011;51290;45.060;38.948;2023-02-22T14:36:29;3.97;;;1.50;;
64832;SDS011;51290;45.060;38.948;2023-02-22T14:39:21;1.13;;;0.93;;
64832;SDS011;51290;45.060;38.948;2023-02-22T14:41:59;1.42;;;1.33;;
64832;SDS011;51290;45.060;38.948;2023-02-22T14:44:37;2.63;;;1.45;;
64832;SDS011;51290;45.060;38.948;2023-02-22T14:47:13;1.90;;;1.63;;
64832;SDS011;51290;45.060;38.948;2023-02-22T14:49:46;2.17;;;1.55;;
64832;SDS011;51290;45.060;38.948;2023-02-22T14:52:25;2.33;;;1.70;;
64832;SDS011;51290;45.060;38.948;2023-02-22T14:54:56;3.38;;;1.98;;
64832;SDS011;51290;45.060;38.948;2023-02-22T14:57:36;3.22;;;1.33;;
64832;SDS011;51290;45.060;38.948;2023-02-22T15:00:05;2.40;;;1.67;;
64832;SDS011;51290;45.060;38.948;2023-02-22T15:02:45;1.67;;;1.48;;
64832;SDS011;51290;45.060;38.948;2023-02-22T15:05:13;2.38;;;1.65;;
64832;SDS011;51290;45.060;38.948;2023-02-22T15:08:17;1.95;;;1.77;;
64832;SDS011;51290;45.060;38.948;2023-02-22T15:13:33;2.05;;;1.83;;
64832;SDS011;51290;45.060;38.948;2023-02-22T15:16:00;8.25;;;1.15;;
64832;SDS011;51290;45.060;38.948;2023-02-22T15:18:45;3.67;;;2.08;;
64832;SDS011;51290;45.060;38.948;2023-02-22T15:21:15;5.57;;;1.05;;
64832;SDS011;51290;45.060;38.948;2023-02-22T15:23:44;2.15;;;1.95;;
64832;SDS011;51290;45.060;38.948;2023-02-22T15:26:18;14.15;;;1.90;;
64832;SDS011;51290;45.060;38.948;2023-02-22T15:29:17;2.20;;;1.95;;
64832;SDS011;51290;45.060;38.948;2023-02-22T15:31:45;3.80;;;2.50;;
64832;SDS011;51290;45.060;38.948;2023-02-22T15:37:20;7.03;;;1.52;;
64832;SDS011;51290;45.060;38.948;2023-02-22T15:39:52;2.83;;;2.13;;
64832;SDS011;51290;45.060;38.948;2023-02-22T15:42:26;2.00;;;1.33;;
64832;SDS011;51290;45.060;38.948;2023-02-22T15:44:54;1.63;;;1.52;;
64832;SDS011;51290;45.060;38.948;2023-02-22T15:47:41;1.73;;;1.63;;
64832;SDS011;51290;45.060;38.948;2023-02-22T15:52:54;3.67;;;1.65;;
64832;SDS011;51290;45.060;38.948;2023-02-22T15:55:45;3.42;;;2.13;;
64832;SDS011;51290;45.060;38.948;2023-02-22T16:00:40;1.52;;;1.42;;
64832;SDS011;51290;45.060;38.948;2023-02-22T16:03:10;6.55;;;1.77;;
64832;SDS011;51290;45.060;38.948;2023-02-22T16:05:45;1.50;;;1.40;;
64832;SDS011;51290;45.060;38.948;2023-02-22T16:11:06;3.72;;;1.90;;
64832;SDS011;51290;45.060;38.948;2023-02-22T16:13:38;4.93;;;2.47;;
64832;SDS011;51290;45.060;38.948;2023-02-22T16:18:47;5.78;;;1.95;;
64832;SDS011;51290;45.060;38.948;2023-02-22T16:21:22;2.80;;;1.85;;
64832;SDS011;51290;45.060;38.948;2023-02-22T16:23:52;3.77;;;2.53;;
64832;SDS011;51290;45.060;38.948;2023-02-22T16:26:27;2.28;;;1.92;;
64832;SDS011;51290;45.060;38.948;2023-02-22T16:28:56;3.83;;;2.42;;
64832;SDS011;51290;45.060;38.948;2023-02-22T16:31:25;2.53;;;2.15;;
64832;SDS011;51290;45.060;38.948;2023-02-22T16:33:53;1.75;;;1.65;;
64832;SDS011;51290;45.060;38.948;2023-02-22T16:36:21;10.48;;;2.75;;
64832;SDS011;51290;45.060;38.948;2023-02-22T16:39:24;2.00;;;1.70;;
64832;SDS011;51290;45.060;38.948;2023-02-22T16:41:56;4.82;;;1.98;;
64832;SDS011;51290;45.060;38.948;2023-02-22T16:44:24;2.58;;;2.03;;
64832;SDS011;51290;45.060;38.948;2023-02-22T16:46:51;2.25;;;1.55;;
64832;SDS011;51290;45.060;38.948;2023-02-22T16:49:19;3.03;;;2.72;;
64832;SDS011;51290;45.060;38.948;2023-02-22T16:51:51;3.13;;;2.33;;
64832;SDS011;51290;45.060;38.948;2023-02-22T16:54:22;2.63;;;1.55;;
64832;SDS011;51290;45.060;38.948;2023-02-22T16:56:55;1.75;;;1.30;;
64832;SDS011;51290;45.060;38.948;2023-02-22T16:59:26;3.67;;;2.58;;
64832;SDS011;51290;45.060;38.948;2023-02-22T17:01:55;2.78;;;2.13;;
64832;SDS011;51290;45.060;38.948;2023-02-22T17:04:32;4.70;;;3.53;;
64832;SDS011;51290;45.060;38.948;2023-02-22T17:06:59;10.23;;;4.43;;
64832;SDS011;51290;45.060;38.948;2023-02-22T17:09:27;8.68;;;3.33;;
64832;SDS011;51290;45.060;38.948;2023-02-22T17:11:53;6.53;;;4.85;;
64832;SDS011;51290;45.060;38.948;2023-02-22T17:14:21;8.27;;;3.88;;
64832;SDS011;51290;45.060;38.948;2023-02-22T17:16:51;6.70;;;3.67;;
64832;SDS011;51290;45.060;38.948;2023-02-22T17:19:19;4.38;;;3.40;;
64832;SDS011;51290;45.060;38.948;2023-02-22T17:21:47;5.47;;;3.50;;
64832;SDS011;51290;45.060;38.948;2023-02-22T17:24:18;4.88;;;3.97;;
64832;SDS011;51290;45.060;38.948;2023-02-22T17:26:49;3.70;;;2.80;;
64832;SDS011;51290;45.060;38.948;2023-02-22T17:29:17;6.22;;;3.58;;
64832;SDS011;51290;45.060;38.948;2023-02-22T17:31:43;5.45;;;3.05;;
64832;SDS011;51290;45.060;38.948;2023-02-22T17:34:10;3.75;;;3.15;;
64832;SDS011;51290;45.060;38.948;2023-02-22T17:36:37;5.35;;;3.28;;
64832;SDS011;51290;45.060;38.948;2023-02-22T17:39:04;5.53;;;3.28;;
64832;SDS011;51290;45.060;38.948;2023-02-22T17:41:30;5.18;;;2.90;;
64832;SDS011;51290;45.060;38.948;2023-02-22T17:43:56;6.88;;;3.13;;
64832;SDS011;51290;45.060;38.948;2023-02-22T17:46:24;4.78;;;3.28;;
64832;SDS011;51290;45.060;38.948;2023-02-22T17:48:50;4.20;;;3.00;;